Altamont, UT

4:58 PM MDT on September 01, 2014 (GMT -0600)
Vernal | Change Station
CLOSE
Current Station
Airport
Location: Vernal,
Elevation: 5276 ft
Nearby Weather Stations

Elev 5276 ft 40.44 °N, 109.51 °W | Updated 5 minutes ago

Partly Cloudy
Partly Cloudy
78 °F
Feels Like 78 °F
N
9
Wind Variable Wind from ENE

Today
High -- | Low -- °F
--% Chance of Precip.
Yesterday
High -- | Low -- °F
Precip. -- in
6:49 AM 7:53 PM
Waxing Crescent, 45% visible
Pressure 29.89 in
Visibility 10.0 miles
Clouds Few 10000 ft
Dew Point 41 °F
Humidity 27%
Rainfall 0.00 in
Snow Depth 0 in
UV 4 out of 12
Pollen 8.90 out of 12
Air Quality Not available.
Flu Activity Not available.
METAR KVEL 012253Z AUTO 06008KT 10SM FEW100 26/05 A3004 RMK AO2 SLP121 T02560050

More Conditions Fewer Conditions

Pressure 29.89 in
Visibility 10.0 miles
Clouds Few 10000 ft
Dew Point 41 °F
Humidity 27%
Rainfall 0.00 in
Snow Depth 0 in
UV 4 out of 12
Pollen 8.90 out of 12
Air Quality Not available.
Flu Activity Not available.
METAR KVEL 012253Z AUTO 06008KT 10SM FEW100 26/05 A3004 RMK AO2 SLP121 T02560050

More Conditions Fewer Conditions

10-Day Weather Forecast

Almanac

Astronomy

Sep. 01, 2014 Rise Set
Actual Time 6:49 AM MDT 7:53 PM MDT
Civil Twilight 6:21 AM MDT 8:21 PM MDT
Nautical Twilight 5:47 AM MDT 8:54 PM MDT
Astronomical Twilight 5:13 AM MDT 9:29 PM MDT
Moon 1:39 PM MDT 11:56 PM MDT
Length of Visible Light 14h 00m
Length of Day
13h 04m
Tomorrow will be 2m 34s shorter.
Waxing Crescent, 45% of the Moon is Illuminated
Today
Waxing Crescent
Sep 2
First Quarter
Sep 8
Full
Sep 15
Last Quarter
Sep 24
New

Today's Extremes

State Highs State Lows

Community

WunderPhotos

Upload Photos

1,749,427 photos uploaded!

Nearby

Snow Depth

Station Depth Elevation
Rock Creek 0 in 7900 ft
Trial Lake 0 in 9960 ft
Daniels-Strawberry 0 in 8000 ft
Strawberry Divide 0 in 8400 ft
Trout Creek 0 in 9400 ft

Earthquake Activity

City Distance Mag. Time & Date
No recent earthquake activity has been reported nearby.
Minimum magnitude displayed is 2.5.

Coastal Water Temperatures

Place Temperature
No Stations Reporting

Nearby Weather Stations